Time;durP1;ratioP1;P1;durP2;ratioP2;P2;SDS_P1;SDS_P2;PMS_P1;PMS_P2;Temp;Humidity;BMP_temperature;BMP_pressure;BME280_temperature;BME280_humidity;BME280_pressure;Samples;Min_cycle;Max_cycle;Signal;HPM_P1;HPM_P2
2023/06/20 00:01:31;;;;;;;9.43;7.82;;;;;;;15.07;100.00;101330.59;5028466;28;20199;-52
2023/06/20 00:03:57;;;;;;;9.93;7.28;;;;;;;14.81;100.00;101332.72;5029543;28;20184;-52
2023/06/20 00:06:22;;;;;;;8.35;6.68;;;;;;;14.76;100.00;101325.81;5025576;28;20188;-53
2023/06/20 00:08:48;;;;;;;8.55;7.65;;;;;;;14.70;100.00;101323.41;5034759;28;20217;-53
2023/06/20 00:11:14;;;;;;;8.77;7.97;;;;;;;14.63;100.00;101333.63;5034557;28;20215;-52
2023/06/20 00:13:42;;;;;;;8.80;7.65;;;;;;;14.32;100.00;101336.81;5032407;28;20204;-51
2023/06/20 00:16:11;;;;;;;8.82;8.02;;;;;;;14.31;100.00;101344.03;5030197;28;20187;-49
2023/06/20 00:18:37;;;;;;;8.43;7.47;;;;;;;14.14;100.00;101336.69;5028256;28;20224;-48
2023/06/20 00:21:03;;;;;;;8.70;7.90;;;;;;;14.10;100.00;101335.13;5031517;28;20176;-49
2023/06/20 00:23:30;;;;;;;9.10;8.20;;;;;;;14.01;100.00;101333.72;5030652;28;20220;-46
2023/06/20 00:25:56;;;;;;;8.35;7.55;;;;;;;13.82;100.00;101335.47;5032110;28;20176;-46
2023/06/20 00:28:22;;;;;;;8.45;7.53;;;;;;;14.06;100.00;101348.75;5032471;28;20254;-51
2023/06/20 00:30:47;;;;;;;8.45;7.75;;;;;;;13.95;100.00;101349.22;5030208;28;20168;-50
2023/06/20 00:33:13;;;;;;;9.32;8.52;;;;;;;13.99;100.00;101349.06;5032026;28;20212;-50
2023/06/20 00:35:39;;;;;;;8.48;7.57;;;;;;;14.04;100.00;101350.66;5033848;28;20183;-49
2023/06/20 00:38:06;;;;;;;8.10;7.40;;;;;;;14.15;100.00;101348.38;5029127;28;20184;-47
2023/06/20 00:40:32;;;;;;;8.90;8.10;;;;;;;13.96;100.00;101342.91;5029992;28;20187;-49
2023/06/20 00:42:58;;;;;;;9.30;8.40;;;;;;;13.71;100.00;101351.19;5028633;28;20262;-46
2023/06/20 00:45:32;;;;;;;9.73;8.73;;;;;;;13.62;100.00;101349.75;5038230;28;20173;-48
2023/06/20 00:48:03;;;;;;;8.25;7.55;;;;;;;13.79;100.00;101351.72;5030082;28;20283;-48
2023/06/20 00:50:30;;;;;;;7.35;6.75;;;;;;;13.90;100.00;101340.50;5033634;28;20247;-47
2023/06/20 00:53:01;;;;;;;7.57;6.97;;;;;;;13.93;100.00;101348.47;5023609;28;20291;-47
2023/06/20 00:55:28;;;;;;;7.32;6.65;;;;;;;13.88;100.00;101345.94;5025277;28;20169;-47
2023/06/20 00:57:56;;;;;;;8.40;7.68;;;;;;;13.89;100.00;101336.94;5029359;28;20196;-48
2023/06/20 01:00:23;;;;;;;8.20;7.40;;;;;;;13.91;100.00;101328.78;5032846;28;20177;-47
2023/06/20 01:02:48;;;;;;;8.85;7.97;;;;;;;13.90;100.00;101333.28;5022373;28;20203;-48
2023/06/20 01:05:15;;;;;;;8.05;7.25;;;;;;;13.86;100.00;101331.66;5031537;28;20300;-47
2023/06/20 01:07:57;;;;;;;8.65;7.85;;;;;;;13.77;100.00;101340.16;5028911;28;20348;-47
2023/06/20 01:10:55;;;;;;;8.80;7.78;;;;;;;13.65;100.00;101338.88;5030946;28;20193;-47
2023/06/20 01:13:38;;;;;;;8.88;8.07;;;;;;;13.28;100.00;101334.13;5026878;28;20219;-48
2023/06/20 01:16:12;;;;;;;9.73;8.88;;;;;;;13.25;100.00;101350.38;5038218;28;20200;-48
2023/06/20 01:18:46;;;;;;;8.80;7.97;;;;;;;13.38;100.00;101349.88;5030867;28;20174;-47
2023/06/20 01:21:17;;;;;;;7.97;7.30;;;;;;;13.46;100.00;101348.66;5028940;28;20557;-47
2023/06/20 01:24:05;;;;;;;8.32;7.53;;;;;;;13.45;100.00;101346.94;5029598;28;20268;-47
2023/06/20 01:26:37;;;;;;;7.63;7.03;;;;;;;13.44;100.00;101351.41;5036149;28;20200;-46
2023/06/20 01:29:15;;;;;;;9.68;8.68;;;;;;;13.06;100.00;101345.78;5012222;28;20172;-48
2023/06/20 01:31:49;;;;;;;9.35;8.45;;;;;;;12.93;100.00;101348.06;5031654;28;20232;-50
2023/06/20 01:34:21;;;;;;;9.95;8.95;;;;;;;12.88;100.00;101358.16;5028626;28;20268;-49
2023/06/20 01:36:56;;;;;;;9.00;8.20;;;;;;;12.94;100.00;101365.97;5028916;28;20184;-48
2023/06/20 01:39:29;;;;;;;9.02;8.13;;;;;;;13.18;100.00;101363.22;5035567;28;20184;-49
2023/06/20 01:41:57;;;;;;;8.05;7.35;;;;;;;13.16;100.00;101362.41;5025700;28;20185;-48
2023/06/20 01:44:27;;;;;;;9.02;8.13;;;;;;;12.98;100.00;101364.03;5027203;28;20564;-49
2023/06/20 01:46:56;;;;;;;9.80;8.80;;;;;;;12.89;100.00;101353.63;5025041;28;20192;-48
2023/06/20 01:49:24;;;;;;;8.95;8.15;;;;;;;12.91;100.00;101355.31;5020023;28;20204;-49
2023/06/20 01:51:55;;;;;;;7.90;7.30;;;;;;;12.89;100.00;101348.25;5034293;28;20231;-48
2023/06/20 01:54:28;;;;;;;9.18;8.32;;;;;;;12.90;100.00;101353.59;5035656;28;20243;-47
2023/06/20 01:56:57;;;;;;;9.25;8.38;;;;;;;12.96;100.00;101352.44;5026661;28;20168;-49
2023/06/20 01:59:25;;;;;;;9.75;8.48;;;;;;;12.99;100.00;101346.97;5027700;28;20224;-46
2023/06/20 02:01:52;;;;;;;9.77;8.77;;;;;;;12.88;100.00;101338.41;5032806;28;20184;-48
2023/06/20 02:04:18;;;;;;;9.57;8.63;;;;;;;12.65;100.00;101342.03;5026279;28;20268;-48
2023/06/20 02:06:48;;;;;;;10.77;9.68;;;;;;;12.49;100.00;101339.06;5031456;28;20196;-48
2023/06/20 02:09:16;;;;;;;10.30;8.43;;;;;;;12.49;100.00;101348.00;5028530;28;20584;-48
2023/06/20 02:11:44;;;;;;;10.23;9.23;;;;;;;12.48;100.00;101358.78;5028278;28;20256;-47
2023/06/20 02:14:10;;;;;;;10.80;9.70;;;;;;;12.54;100.00;101356.75;5026453;28;20216;-48
2023/06/20 02:16:38;;;;;;;8.70;7.90;;;;;;;12.68;100.00;101350.84;5026274;28;20187;-49
2023/06/20 02:19:06;;;;;;;8.82;8.05;;;;;;;12.80;100.00;101345.94;5032129;28;20192;-48
2023/06/20 02:21:36;;;;;;;8.02;7.28;;;;;;;12.77;100.00;101353.19;5023552;28;20195;-48
2023/06/20 02:24:05;;;;;;;9.02;8.13;;;;;;;12.78;100.00;101344.16;5029790;28;20767;-49
2023/06/20 02:26:34;;;;;;;8.90;8.07;;;;;;;12.74;100.00;101358.66;5021131;28;20176;-49
2023/06/20 02:29:05;;;;;;;10.45;8.68;;;;;;;12.74;100.00;101347.91;5028692;28;20189;-50
2023/06/20 02:31:35;;;;;;;9.73;8.77;;;;;;;12.68;100.00;101345.47;5035983;28;20203;-50
2023/06/20 02:34:04;;;;;;;8.32;7.53;;;;;;;12.68;100.00;101350.84;5034276;28;20299;-49
2023/06/20 02:36:31;;;;;;;9.25;8.32;;;;;;;12.56;100.00;101340.56;5024589;28;20196;-48
2023/06/20 02:38:57;;;;;;;8.43;7.72;;;;;;;12.66;100.00;101343.75;5030679;28;20188;-49
2023/06/20 02:41:24;;;;;;;8.95;8.15;;;;;;;12.60;100.00;101346.72;5047397;28;20660;-50
2023/06/20 02:43:50;;;;;;;8.25;7.55;;;;;;;12.52;100.00;101342.47;5026057;28;20243;-49
2023/06/20 02:46:34;;;;;;;8.63;7.90;;;;;;;12.53;100.00;101341.56;5025213;28;20456;-49
2023/06/20 02:49:09;;;;;;;8.95;8.05;;;;;;;12.60;100.00;101341.34;5027401;28;20468;-50
2023/06/20 02:51:39;;;;;;;9.38;8.57;;;;;;;12.56;100.00;101340.56;5030270;28;20179;-51
2023/06/20 02:54:16;;;;;;;9.85;8.68;;;;;;;12.34;100.00;101340.50;5047275;28;20256;-51
2023/06/20 02:56:47;;;;;;;10.00;9.10;;;;;;;12.30;100.00;101346.91;5027348;28;20586;-51
2023/06/20 02:59:13;;;;;;;9.98;9.07;;;;;;;12.34;100.00;101345.88;5035724;28;20199;-49
2023/06/20 03:01:45;;;;;;;8.43;7.72;;;;;;;12.49;100.00;101353.38;5030861;28;20689;-49
2023/06/20 03:04:13;;;;;;;8.07;7.38;;;;;;;12.59;100.00;101343.13;5025383;28;20203;-47
2023/06/20 03:06:43;;;;;;;9.35;8.55;;;;;;;12.53;100.00;101348.75;5030672;28;20222;-48
2023/06/20 03:09:09;;;;;;;9.10;8.30;;;;;;;12.63;100.00;101343.91;5034728;28;20215;-49
2023/06/20 03:11:35;;;;;;;9.48;7.88;;;;;;;12.65;100.00;101347.41;5032806;28;20190;-49
2023/06/20 03:14:03;;;;;;;9.70;8.80;;;;;;;12.62;100.00;101340.34;5025121;28;20211;-47
2023/06/20 03:16:30;;;;;;;9.30;8.40;;;;;;;12.52;100.00;101333.56;5028855;28;20184;-51
2023/06/20 03:18:56;;;;;;;10.32;9.02;;;;;;;12.57;100.00;101336.94;5030201;28;20311;-51
2023/06/20 03:21:25;;;;;;;10.55;9.32;;;;;;;12.65;100.00;101334.81;5014704;28;20168;-50
2023/06/20 03:23:51;;;;;;;9.60;8.65;;;;;;;12.66;100.00;101336.59;5035876;28;20215;-50
2023/06/20 03:26:17;;;;;;;9.98;9.00;;;;;;;12.66;100.00;101341.06;5033296;28;20188;-48
2023/06/20 03:28:42;;;;;;;8.85;8.05;;;;;;;12.84;100.00;101344.88;5031725;28;20231;-49
2023/06/20 03:31:08;;;;;;;11.77;10.40;;;;;;;12.85;100.00;101346.63;5030306;28;20271;-50
2023/06/20 03:33:33;;;;;;;11.15;10.02;;;;;;;12.98;100.00;101348.75;5032289;28;20297;-51
2023/06/20 03:36:00;;;;;;;10.55;9.55;;;;;;;13.03;100.00;101351.28;5031218;28;20183;-50
2023/06/20 03:38:25;;;;;;;9.45;8.52;;;;;;;13.07;100.00;101358.25;5024667;28;20248;-50
2023/06/20 03:40:51;;;;;;;9.85;8.82;;;;;;;13.15;100.00;101356.16;5032924;28;20190;-50
2023/06/20 03:43:17;;;;;;;9.00;8.20;;;;;;;13.18;100.00;101356.03;5036472;28;20204;-51
2023/06/20 03:45:43;;;;;;;9.52;8.68;;;;;;;13.18;100.00;101355.16;5028189;28;20206;-50
2023/06/20 03:48:09;;;;;;;11.07;9.90;;;;;;;13.29;100.00;101354.75;5025565;28;20297;-48
2023/06/20 03:50:36;;;;;;;10.13;9.13;;;;;;;13.42;100.00;101355.13;5027306;28;20169;-50
2023/06/20 03:53:03;;;;;;;11.40;10.30;;;;;;;13.39;100.00;101359.69;5026881;28;20216;-50
2023/06/20 03:55:29;;;;;;;11.27;10.18;;;;;;;13.44;100.00;101366.69;5024417;28;20239;-50
2023/06/20 03:57:55;;;;;;;10.38;9.38;;;;;;;13.57;100.00;101362.53;5029803;28;20323;-50
2023/06/20 04:00:21;;;;;;;10.18;9.27;;;;;;;13.66;100.00;101359.47;5034290;28;20213;-49
2023/06/20 04:02:46;;;;;;;11.68;10.52;;;;;;;13.74;100.00;101354.63;5027588;28;20446;-49
2023/06/20 04:05:13;;;;;;;14.48;10.15;;;;;;;13.86;100.00;101355.91;5030282;28;20169;-49
2023/06/20 04:07:42;;;;;;;12.65;11.35;;;;;;;13.90;100.00;101362.91;5030171;28;20182;-50
2023/06/20 04:10:12;;;;;;;11.45;10.18;;;;;;;14.06;100.00;101355.06;5029598;28;20188;-47
2023/06/20 04:12:39;;;;;;;13.13;10.25;;;;;;;14.13;100.00;101364.59;5034899;28;20494;-47
2023/06/20 04:15:06;;;;;;;13.32;11.25;;;;;;;14.26;100.00;101355.97;5030543;28;20181;-50
2023/06/20 04:17:31;;;;;;;12.82;11.52;;;;;;;14.35;100.00;101369.91;5033549;28;20185;-48
2023/06/20 04:19:59;;;;;;;14.18;12.30;;;;;;;14.45;100.00;101362.25;5024302;28;20173;-49
2023/06/20 04:22:27;;;;;;;16.73;12.15;;;;;;;14.53;100.00;101365.47;5023638;28;20267;-49
2023/06/20 04:24:54;;;;;;;15.13;12.50;;;;;;;14.61;100.00;101366.03;5033509;28;20183;-49
2023/06/20 04:27:19;;;;;;;12.48;11.27;;;;;;;14.76;100.00;101369.84;5032834;28;20292;-50
2023/06/20 04:29:46;;;;;;;16.48;14.77;;;;;;;14.87;100.00;101353.16;5027084;28;20243;-49
2023/06/20 04:32:12;;;;;;;13.73;12.32;;;;;;;14.93;100.00;101360.94;5029071;28;20201;-49
2023/06/20 04:34:38;;;;;;;13.45;12.15;;;;;;;15.13;100.00;101357.31;5029892;28;20203;-49
2023/06/20 04:37:03;;;;;;;16.55;14.93;;;;;;;15.31;100.00;101351.94;5031629;28;20188;-48
2023/06/20 04:39:29;;;;;;;23.88;18.70;;;;;;;15.43;100.00;101362.13;5037417;28;20188;-50
2023/06/20 04:41:55;;;;;;;22.08;19.77;;;;;;;15.50;100.00;101358.16;5029984;28;20191;-48
2023/06/20 04:44:21;;;;;;;26.90;21.67;;;;;;;15.51;100.00;101357.22;5029252;28;20287;-47
2023/06/20 04:46:46;;;;;;;28.20;22.17;;;;;;;15.51;100.00;101365.31;5028774;28;20211;-49
2023/06/20 04:49:12;;;;;;;25.60;20.92;;;;;;;15.55;100.00;101366.03;5035508;28;20180;-46
2023/06/20 04:51:40;;;;;;;25.73;22.40;;;;;;;15.57;100.00;101365.00;5027666;28;20240;-49
2023/06/20 04:54:07;;;;;;;25.35;22.63;;;;;;;15.64;100.00;101371.84;5029366;28;20204;-49
2023/06/20 04:56:40;;;;;;;24.08;21.33;;;;;;;15.71;100.00;101379.63;5025089;28;20195;-49
2023/06/20 04:59:08;;;;;;;22.98;20.10;;;;;;;15.75;100.00;101387.53;5028140;28;20558;-49
2023/06/20 05:01:34;;;;;;;22.95;20.17;;;;;;;15.79;100.00;101393.66;5030659;28;20191;-47
2023/06/20 05:04:03;;;;;;;22.77;18.73;;;;;;;15.86;100.00;101401.38;5030056;28;20319;-49
2023/06/20 05:06:29;;;;;;;20.00;17.80;;;;;;;15.98;100.00;101380.97;5010745;28;20235;-49
2023/06/20 05:08:56;;;;;;;21.00;18.75;;;;;;;16.06;100.00;101386.81;5038260;28;20180;-48
2023/06/20 05:11:21;;;;;;;23.77;19.88;;;;;;;16.19;100.00;101394.28;5027619;28;20185;-48
2023/06/20 05:13:47;;;;;;;22.35;19.95;;;;;;;16.27;100.00;101382.13;5029117;28;20219;-47
2023/06/20 05:16:13;;;;;;;23.90;21.40;;;;;;;16.32;100.00;101378.31;5013546;28;20177;-48
2023/06/20 05:18:38;;;;;;;22.52;19.98;;;;;;;16.30;100.00;101378.38;5028820;28;20208;-50
2023/06/20 05:21:04;;;;;;;27.40;21.90;;;;;;;16.30;100.00;101370.25;5029260;28;20176;-48
2023/06/20 05:23:29;;;;;;;23.20;19.70;;;;;;;16.48;100.00;101374.66;5028162;28;20264;-48
2023/06/20 05:25:54;;;;;;;21.55;18.63;;;;;;;16.62;100.00;101373.06;5030056;28;20187;-47
2023/06/20 05:28:20;;;;;;;22.50;19.17;;;;;;;16.76;100.00;101377.72;5029649;28;20188;-49
2023/06/20 05:30:46;;;;;;;22.13;19.83;;;;;;;16.81;100.00;101368.38;5028205;28;20207;-48
2023/06/20 05:33:12;;;;;;;20.77;18.67;;;;;;;16.83;100.00;101376.44;5035471;28;20215;-48
2023/06/20 05:35:38;;;;;;;24.95;19.60;;;;;;;16.91;100.00;101382.28;5029238;28;20176;-50
2023/06/20 05:38:03;;;;;;;21.60;18.35;;;;;;;16.94;100.00;101384.81;5023596;28;20169;-49
2023/06/20 05:40:29;;;;;;;23.67;19.10;;;;;;;16.76;100.00;101383.97;5028677;28;20180;-50
2023/06/20 05:42:55;;;;;;;18.88;16.88;;;;;;;16.90;100.00;101383.25;5027373;28;20212;-47
2023/06/20 05:45:21;;;;;;;20.42;18.38;;;;;;;16.97;100.00;101387.38;5012040;28;20195;-50
2023/06/20 05:47:46;;;;;;;19.10;17.08;;;;;;;17.06;100.00;101385.97;5029865;28;20230;-48
2023/06/20 05:50:12;;;;;;;18.92;17.02;;;;;;;17.23;100.00;101380.47;5029035;28;20180;-49
2023/06/20 05:52:38;;;;;;;16.50;14.90;;;;;;;17.52;100.00;101380.63;5036487;28;20204;-50
2023/06/20 05:55:04;;;;;;;18.27;16.40;;;;;;;17.53;100.00;101379.66;5031546;28;20188;-49
2023/06/20 05:57:30;;;;;;;18.30;16.38;;;;;;;17.71;100.00;101372.28;5027299;28;20175;-48
2023/06/20 05:59:56;;;;;;;20.27;18.20;;;;;;;17.40;100.00;101378.63;5031423;28;20180;-50
2023/06/20 06:02:21;;;;;;;18.77;16.83;;;;;;;17.37;100.00;101389.66;5029558;28;20246;-47
2023/06/20 06:04:48;;;;;;;18.75;16.83;;;;;;;17.22;100.00;101391.38;5030740;28;20181;-49
2023/06/20 06:07:14;;;;;;;20.45;17.85;;;;;;;17.18;100.00;101385.25;5025873;28;20188;-48
2023/06/20 06:09:39;;;;;;;20.65;18.40;;;;;;;17.20;100.00;101388.75;5027070;28;20192;-50
2023/06/20 06:12:06;;;;;;;17.95;16.13;;;;;;;17.53;100.00;101393.19;5025854;28;20187;-47
2023/06/20 06:14:31;;;;;;;19.30;16.70;;;;;;;17.72;100.00;101384.88;5029451;28;20200;-50
2023/06/20 06:16:57;;;;;;;17.02;15.40;;;;;;;18.08;100.00;101386.34;5028952;28;20184;-50
2023/06/20 06:19:23;;;;;;;18.98;14.90;;;;;;;18.36;100.00;101377.38;5038248;28;20239;-50
2023/06/20 06:21:48;;;;;;;18.25;16.38;;;;;;;18.20;100.00;101379.31;5029983;28;20188;-49
2023/06/20 06:24:14;;;;;;;20.77;16.30;;;;;;;18.48;100.00;101373.91;5032134;28;20240;-49
2023/06/20 06:26:40;;;;;;;16.58;14.98;;;;;;;18.96;100.00;101372.75;5030638;28;20191;-48
2023/06/20 06:29:05;;;;;;;17.60;15.93;;;;;;;18.99;100.00;101370.72;5028198;28;20179;-48
2023/06/20 06:31:34;;;;;;;15.18;13.68;;;;;;;19.05;100.00;101370.31;5034718;28;20199;-49
2023/06/20 06:34:01;;;;;;;16.50;14.80;;;;;;;19.14;100.00;101368.84;5027892;28;20220;-48
2023/06/20 06:36:31;;;;;;;17.65;14.55;;;;;;;19.26;100.00;101368.03;5029688;28;20191;-50
2023/06/20 06:38:58;;;;;;;17.45;15.65;;;;;;;19.47;100.00;101368.44;5027383;28;20642;-49
2023/06/20 06:41:24;;;;;;;18.80;16.85;;;;;;;19.41;100.00;101377.00;5022466;28;20198;-49
2023/06/20 06:43:50;;;;;;;19.17;17.27;;;;;;;19.23;100.00;101370.09;5031209;28;20515;-47
2023/06/20 06:46:15;;;;;;;18.38;16.48;;;;;;;19.67;100.00;101375.25;5035993;28;20371;-48
2023/06/20 06:48:41;;;;;;;16.30;14.63;;;;;;;19.73;100.00;101376.72;5031476;28;20203;-48
2023/06/20 06:51:07;;;;;;;14.88;13.07;;;;;;;19.99;100.00;101384.94;5029191;28;20172;-46
2023/06/20 06:53:33;;;;;;;15.98;14.27;;;;;;;20.02;98.96;101382.88;5027948;28;20235;-48
2023/06/20 06:55:58;;;;;;;17.90;13.70;;;;;;;20.30;97.49;101381.81;5028570;28;20266;-48
2023/06/20 06:58:23;;;;;;;14.13;12.70;;;;;;;20.27;94.93;101373.88;5029477;28;20191;-48
2023/06/20 07:00:49;;;;;;;13.77;12.35;;;;;;;20.26;93.88;101385.72;5026919;28;20188;-49
2023/06/20 07:03:15;;;;;;;11.85;10.55;;;;;;;20.61;93.74;101366.06;5028702;28;20210;-47
2023/06/20 07:05:41;;;;;;;10.70;9.63;;;;;;;20.83;91.10;101370.81;5030083;28;20233;-49
2023/06/20 07:08:06;;;;;;;11.05;10.05;;;;;;;20.14;90.26;101362.97;5028525;28;20203;-49
2023/06/20 07:10:32;;;;;;;8.88;7.97;;;;;;;20.73;91.13;101361.59;5027520;28;20196;-49
2023/06/20 07:12:57;;;;;;;9.38;8.35;;;;;;;21.10;87.72;101354.31;5028498;28;20208;-47
2023/06/20 07:15:23;;;;;;;11.07;9.80;;;;;;;20.66;85.79;101344.81;5028447;28;20192;-48
2023/06/20 07:17:49;;;;;;;12.65;8.98;;;;;;;21.16;86.68;101355.69;5037711;28;20275;-48
2023/06/20 07:20:16;;;;;;;10.07;9.15;;;;;;;20.79;84.96;101344.78;5027804;28;20180;-48
2023/06/20 07:22:41;;;;;;;12.32;10.98;;;;;;;20.81;87.06;101345.53;5027652;28;20246;-50
2023/06/20 07:25:08;;;;;;;12.77;10.65;;;;;;;20.83;86.98;101346.31;5030185;28;20543;-49
2023/06/20 07:27:33;;;;;;;11.45;10.35;;;;;;;21.64;85.70;101342.09;5027812;28;20183;-47
2023/06/20 07:29:59;;;;;;;15.70;13.07;;;;;;;21.14;83.47;101335.84;5027013;28;20416;-48
2023/06/20 07:32:25;;;;;;;15.93;14.30;;;;;;;20.43;85.34;101329.25;5032324;28;20579;-49
2023/06/20 07:34:51;;;;;;;14.27;12.85;;;;;;;21.73;86.71;101337.78;5032674;28;20199;-49
2023/06/20 07:37:16;;;;;;;11.95;10.82;;;;;;;20.34;88.41;101341.66;5037793;28;20219;-49
2023/06/20 07:39:43;;;;;;;12.55;10.55;;;;;;;19.95;91.22;101343.47;5035414;28;20201;-48
2023/06/20 07:42:12;;;;;;;11.77;9.68;;;;;;;20.16;93.07;101338.41;5036273;28;20177;-49
2023/06/20 07:44:37;;;;;;;12.63;10.57;;;;;;;19.75;94.12;101344.88;5034427;28;20184;-45
2023/06/20 07:47:03;;;;;;;10.55;9.60;;;;;;;20.08;95.60;101344.38;5034689;28;20241;-49
2023/06/20 07:49:29;;;;;;;10.15;8.82;;;;;;;19.98;95.85;101345.97;5034988;28;20177;-48
2023/06/20 07:51:55;;;;;;;10.20;9.20;;;;;;;19.93;96.92;101346.31;5034183;28;20231;-45
2023/06/20 07:54:21;;;;;;;9.35;8.38;;;;;;;19.99;97.35;101355.03;5038671;28;20226;-46
2023/06/20 07:56:47;;;;;;;9.35;8.27;;;;;;;20.10;97.19;101344.28;5034110;28;20185;-48
2023/06/20 07:59:12;;;;;;;8.93;8.02;;;;;;;20.42;97.31;101349.25;5033752;28;20180;-47
2023/06/20 08:01:38;;;;;;;9.88;8.18;;;;;;;20.36;96.96;101339.69;5035662;28;20208;-47
2023/06/20 08:04:04;;;;;;;8.95;8.02;;;;;;;20.44;95.98;101348.16;5034894;28;20196;-47
2023/06/20 08:06:29;;;;;;;8.57;7.80;;;;;;;20.83;93.18;101346.31;5030040;28;20187;-47
2023/06/20 08:08:55;;;;;;;8.93;8.18;;;;;;;20.37;93.93;101339.56;5031252;28;20275;-48
2023/06/20 08:11:24;;;;;;;9.93;8.93;;;;;;;19.67;95.57;101342.63;5029410;28;20275;-49
2023/06/20 08:13:50;;;;;;;10.07;8.90;;;;;;;20.02;95.92;101358.38;5033941;28;20268;-49
2023/06/20 08:16:16;;;;;;;9.30;8.40;;;;;;;19.97;96.32;101357.84;5031646;28;20189;-47
2023/06/20 08:18:41;;;;;;;9.40;8.10;;;;;;;20.19;97.38;101350.91;5032025;28;20180;-48
2023/06/20 08:21:08;;;;;;;9.57;8.10;;;;;;;20.29;98.19;101354.69;5037500;28;20275;-49
2023/06/20 08:23:35;;;;;;;9.95;9.05;;;;;;;20.31;97.44;101352.75;5033702;28;20267;-48
2023/06/20 08:26:00;;;;;;;8.93;7.85;;;;;;;20.52;96.91;101353.94;5039584;28;20187;-48
2023/06/20 08:28:26;;;;;;;10.20;7.93;;;;;;;20.49;97.16;101356.91;5030189;28;20176;-48
2023/06/20 08:30:52;;;;;;;8.05;7.18;;;;;;;20.83;95.98;101345.44;5036969;28;20190;-46
2023/06/20 08:33:22;;;;;;;6.97;6.38;;;;;;;21.62;93.69;101340.47;5025763;28;20276;-47
2023/06/20 08:35:48;;;;;;;7.13;5.57;;;;;;;22.21;85.80;101326.75;5026943;28;20219;-46
2023/06/20 08:38:14;;;;;;;9.20;6.93;;;;;;;22.09;80.39;101306.75;5031011;28;20222;-47
2023/06/20 08:40:40;;;;;;;7.90;7.10;;;;;;;21.84;82.13;101312.41;5025475;28;20192;-47
2023/06/20 08:43:06;;;;;;;7.18;6.03;;;;;;;22.87;82.91;101307.78;5029615;28;20766;-46
2023/06/20 08:45:32;;;;;;;7.90;5.78;;;;;;;23.58;79.18;101308.19;5010293;28;20181;-45
2023/06/20 08:47:58;;;;;;;11.60;6.93;;;;;;;22.14;79.76;101309.97;5036882;28;20366;-47
2023/06/20 08:50:26;;;;;;;8.45;7.57;;;;;;;21.77;82.38;101317.47;5028865;28;20192;-44
2023/06/20 08:52:55;;;;;;;11.82;9.05;;;;;;;21.42;83.42;101331.94;5037985;28;20227;-47
2023/06/20 08:55:22;;;;;;;7.50;5.78;;;;;;;22.10;82.35;101315.81;5029149;28;20187;-50
2023/06/20 08:57:48;;;;;;;7.80;7.07;;;;;;;21.87;81.80;101328.56;5030837;28;20225;-48
2023/06/20 09:00:21;;;;;;;6.00;5.50;;;;;;;22.20;80.52;101325.88;5035561;28;20446;-47
2023/06/20 09:02:47;;;;;;;7.00;6.30;;;;;;;22.46;80.26;101313.91;5022157;28;20370;-48
2023/06/20 09:05:13;;;;;;;6.22;5.72;;;;;;;22.75;78.44;101304.19;5031722;28;20186;-46
2023/06/20 09:07:41;;;;;;;6.63;5.93;;;;;;;22.98;75.04;101295.94;5029203;28;20211;-46
2023/06/20 09:10:09;;;;;;;6.80;5.80;;;;;;;22.90;71.91;101284.81;5030419;28;20179;-47
2023/06/20 09:12:49;;;;;;;6.53;5.22;;;;;;;22.71;72.58;101290.91;5027415;28;20208;-45
2023/06/20 09:15:22;;;;;;;7.55;6.80;;;;;;;21.43;77.04;101324.63;5039722;28;20175;-45
2023/06/20 09:18:01;;;;;;;10.73;7.13;;;;;;;21.76;80.42;101343.03;5033195;28;20199;-45
2023/06/20 09:20:31;;;;;;;8.77;6.95;;;;;;;21.26;81.46;101356.75;5028156;28;20172;-47
2023/06/20 09:22:57;;;;;;;9.45;8.32;;;;;;;20.34;86.57;101371.59;5012874;28;20254;-45
2023/06/20 09:25:25;;;;;;;9.88;8.52;;;;;;;20.30;90.44;101367.34;5028997;28;20172;-47
2023/06/20 09:27:52;;;;;;;9.40;8.48;;;;;;;20.33;92.94;101367.13;5014939;28;20179;-49
2023/06/20 09:30:19;;;;;;;11.13;9.25;;;;;;;20.72;93.58;101360.69;5019623;28;20179;-47
2023/06/20 09:32:44;;;;;;;10.10;8.55;;;;;;;20.47;93.24;101360.72;5033164;28;20212;-49
2023/06/20 09:35:13;;;;;;;9.93;9.05;;;;;;;20.66;93.17;101357.56;5030105;28;20188;-48
2023/06/20 09:37:44;;;;;;;9.40;8.52;;;;;;;20.77;93.00;101344.91;5028025;28;20266;-48
2023/06/20 09:40:17;;;;;;;8.48;7.70;;;;;;;21.01;92.57;101352.25;5031730;28;20203;-50
2023/06/20 09:42:44;;;;;;;11.40;8.93;;;;;;;20.69;93.04;101341.00;5020092;28;20222;-51
2023/06/20 09:45:12;;;;;;;8.88;8.05;;;;;;;21.11;92.59;101357.91;5023195;28;20202;-49
2023/06/20 09:47:39;;;;;;;9.38;8.23;;;;;;;21.26;91.78;101354.03;5024089;23;20591;-51
2023/06/20 09:50:07;;;;;;;8.65;7.85;;;;;;;21.30;91.04;101350.09;5031902;28;20546;-45
2023/06/20 09:53:06;;;;;;;9.30;8.38;;;;;;;21.00;92.06;101345.06;5034733;28;20226;-44
2023/06/20 09:55:35;;;;;;;10.43;8.13;;;;;;;21.15;92.28;101353.97;5014014;28;20393;-50
2023/06/20 09:58:04;;;;;;;9.13;7.68;;;;;;;21.43;90.58;101347.34;5017671;28;20506;-44
2023/06/20 10:00:31;;;;;;;8.38;7.57;;;;;;;21.50;89.29;101337.69;5017738;28;20254;-50
2023/06/20 10:02:59;;;;;;;7.68;6.97;;;;;;;21.79;89.07;101340.91;5014283;28;20204;-46
2023/06/20 10:05:27;;;;;;;8.93;7.07;;;;;;;22.20;88.21;101331.34;5016434;28;20192;-43
2023/06/20 10:07:57;;;;;;;8.77;7.78;;;;;;;21.67;86.86;101328.22;5019243;28;20229;-50
2023/06/20 10:10:23;;;;;;;9.35;7.50;;;;;;;21.84;87.52;101329.63;5013885;28;20200;-49
2023/06/20 10:12:49;;;;;;;6.93;6.18;;;;;;;22.42;85.11;101324.19;5018116;28;20286;-50
2023/06/20 10:15:15;;;;;;;6.35;5.60;;;;;;;23.04;78.52;101301.78;5015220;28;20238;-44
2023/06/20 10:17:43;;;;;;;6.13;4.43;;;;;;;23.89;73.12;101285.56;5015329;28;20222;-45
2023/06/20 10:20:25;;;;;;;5.47;4.97;;;;;;;23.66;71.69;101282.94;5002325;28;20229;-45
2023/06/20 10:22:53;;;;;;;7.13;5.28;;;;;;;23.72;68.98;101274.16;5017444;28;20199;-45
2023/06/20 10:25:19;;;;;;;4.93;4.47;;;;;;;23.61;67.28;101266.03;5017688;28;20616;-45
2023/06/20 10:27:55;;;;;;;5.60;5.10;;;;;;;23.33;68.57;101278.47;5019439;28;20183;-45
2023/06/20 10:30:50;;;;;;;7.10;5.28;;;;;;;23.19;69.53;101269.56;5017776;28;20172;-49
2023/06/20 10:33:32;;;;;;;7.10;4.80;;;;;;;23.07;69.90;101280.66;5017415;28;20234;-43
2023/06/20 10:36:18;;;;;;;5.80;5.13;;;;;;;23.37;69.19;101277.22;5019842;28;20267;-45
2023/06/20 10:38:49;;;;;;;8.10;5.43;;;;;;;23.48;69.11;101287.25;5013049;28;20191;-45
2023/06/20 10:41:28;;;;;;;7.72;6.05;;;;;;;23.39;68.44;101270.59;5022451;28;20236;-50
2023/06/20 10:43:54;;;;;;;5.65;5.13;;;;;;;23.32;68.01;101269.41;5018071;28;20337;-44
2023/06/20 10:46:27;;;;;;;5.60;5.10;;;;;;;23.60;67.65;101264.31;5016107;28;20188;-44
2023/06/20 10:48:52;;;;;;;8.02;5.65;;;;;;;23.56;67.65;101268.31;5014028;28;20195;-43
2023/06/20 10:51:18;;;;;;;6.32;5.18;;;;;;;24.18;67.62;101280.25;5019370;28;20191;-47
2023/06/20 10:53:43;;;;;;;7.15;5.63;;;;;;;24.37;65.55;101258.44;5017416;28;20333;-48
2023/06/20 10:56:24;;;;;;;5.38;4.88;;;;;;;24.59;64.13;101257.38;5023293;28;20229;-45
2023/06/20 10:58:50;;;;;;;9.95;5.78;;;;;;;23.81;63.49;101246.06;5017575;28;20226;-53
2023/06/20 11:01:18;;;;;;;6.65;5.70;;;;;;;23.59;64.55;101260.72;5018473;28;20627;-48
2023/06/20 11:03:45;;;;;;;5.35;4.85;;;;;;;24.00;63.91;101258.13;5015046;28;20284;-48
2023/06/20 11:06:15;;;;;;;5.60;5.10;;;;;;;24.19;62.40;101251.88;5013425;28;20192;-50
2023/06/20 11:08:44;;;;;;;5.45;4.95;;;;;;;24.24;62.11;101250.44;5018190;28;20192;-53
2023/06/20 11:11:09;;;;;;;5.32;4.82;;;;;;;23.96;63.25;101257.50;5026230;28;20176;-48
2023/06/20 11:13:43;;;;;;;6.22;4.78;;;;;;;24.06;61.38;101252.09;5021120;28;20207;-51
2023/06/20 11:16:17;;;;;;;5.28;4.85;;;;;;;23.68;61.16;101237.16;5020957;28;20199;-49
2023/06/20 11:18:43;;;;;;;5.47;4.97;;;;;;;23.40;62.98;101245.00;5021329;28;20692;-51